createdAt,value
2023-04-20T00:01:20.165Z,3.90
2023-04-20T00:03:46.725Z,4.20
2023-04-20T00:06:14.063Z,4.57
2023-04-20T00:08:40.648Z,4.40
2023-04-20T00:11:07.169Z,3.83
2023-04-20T00:13:33.836Z,5.23
2023-04-20T00:16:00.760Z,4.30
2023-04-20T00:18:27.483Z,4.83
2023-04-20T00:20:54.038Z,4.83
2023-04-20T00:23:20.556Z,4.17
2023-04-20T00:25:49.600Z,4.80
2023-04-20T00:28:16.153Z,4.67
2023-04-20T00:30:42.748Z,4.13
2023-04-20T00:33:09.740Z,4.30
2023-04-20T00:35:36.300Z,4.20
2023-04-20T00:38:02.743Z,4.60
2023-04-20T00:40:29.653Z,4.00
2023-04-20T00:42:56.570Z,4.77
2023-04-20T00:45:23.678Z,4.80
2023-04-20T00:47:51.578Z,4.07
2023-04-20T00:50:18.084Z,3.60
2023-04-20T00:52:45.072Z,4.70
2023-04-20T00:55:12.471Z,3.87
2023-04-20T00:57:39.130Z,4.27
2023-04-20T01:00:07.625Z,5.03
2023-04-20T01:02:34.394Z,5.10
2023-04-20T01:05:01.789Z,4.50
2023-04-20T01:07:30.272Z,4.30
2023-04-20T01:09:57.004Z,5.40
2023-04-20T01:12:23.672Z,4.60
2023-04-20T01:14:50.391Z,5.30
2023-04-20T01:17:18.241Z,4.97
2023-04-20T01:19:45.860Z,5.40
2023-04-20T01:22:19.218Z,5.10
2023-04-20T01:24:45.990Z,4.93
2023-04-20T01:27:13.508Z,5.27
2023-04-20T01:29:40.155Z,4.97
2023-04-20T01:32:09.902Z,3.97
2023-04-20T01:34:37.171Z,4.90
2023-04-20T01:37:08.167Z,3.90
2023-04-20T01:39:36.448Z,3.47
2023-04-20T01:42:03.211Z,4.43
2023-04-20T01:44:29.761Z,4.27
2023-04-20T01:46:56.518Z,3.50
2023-04-20T01:49:23.100Z,4.40
2023-04-20T01:51:49.715Z,4.17
2023-04-20T01:54:16.166Z,4.70
2023-04-20T01:56:42.722Z,3.77
2023-04-20T01:59:09.272Z,3.53
2023-04-20T02:01:35.804Z,5.40
2023-04-20T02:04:02.540Z,3.50
2023-04-20T02:06:29.317Z,3.33
2023-04-20T02:08:55.895Z,4.30
2023-04-20T02:11:22.446Z,3.50
2023-04-20T02:13:49.023Z,3.73
2023-04-20T02:16:15.796Z,3.20
2023-04-20T02:18:42.980Z,3.83
2023-04-20T02:21:09.499Z,4.80
2023-04-20T02:23:36.463Z,4.13
2023-04-20T02:26:02.947Z,3.77
2023-04-20T02:28:29.666Z,3.80
2023-04-20T02:30:56.259Z,3.40
2023-04-20T02:33:22.845Z,3.10
2023-04-20T02:35:53.436Z,3.87
2023-04-20T02:38:20.105Z,2.97
2023-04-20T02:40:46.844Z,3.30
2023-04-20T02:43:13.586Z,3.43
2023-04-20T02:45:41.451Z,3.40
2023-04-20T02:48:09.752Z,3.23
2023-04-20T02:50:38.393Z,4.20
2023-04-20T02:53:20.425Z,2.77
2023-04-20T02:55:52.996Z,3.50
2023-04-20T02:58:28.098Z,3.87
2023-04-20T03:01:24.178Z,3.80
2023-04-20T03:03:59.130Z,3.30
2023-04-20T03:06:26.701Z,3.30
2023-04-20T03:08:56.360Z,3.13
2023-04-20T03:11:41.542Z,3.00
2023-04-20T03:14:10.535Z,3.70
2023-04-20T03:16:37.139Z,3.70
2023-04-20T03:19:04.821Z,4.00
2023-04-20T03:21:31.343Z,4.27
2023-04-20T03:23:58.127Z,2.93
2023-04-20T03:26:25.454Z,4.03
2023-04-20T03:29:06.826Z,3.10
2023-04-20T03:31:34.232Z,3.40
2023-04-20T03:34:01.309Z,3.20
2023-04-20T03:36:31.993Z,4.30
2023-04-20T03:38:59.087Z,3.53
2023-04-20T03:41:25.780Z,3.17
2023-04-20T03:43:52.546Z,3.60
2023-04-20T03:46:19.512Z,3.40
2023-04-20T03:48:47.124Z,3.73
2023-04-20T03:51:13.641Z,3.17
2023-04-20T03:53:40.423Z,3.30
2023-04-20T03:56:09.428Z,3.70
2023-04-20T03:58:36.276Z,4.20
2023-04-20T04:01:15.722Z,4.20
2023-04-20T04:03:46.879Z,3.20
2023-04-20T04:06:13.638Z,2.80
2023-04-20T04:08:40.835Z,3.40
2023-04-20T04:11:07.640Z,3.77
2023-04-20T04:13:34.859Z,2.87
2023-04-20T04:16:02.933Z,3.57
2023-04-20T04:18:32.442Z,3.40
2023-04-20T04:21:01.810Z,3.00
2023-04-20T04:23:28.446Z,3.37
2023-04-20T04:26:18.356Z,3.47
2023-04-20T04:28:46.121Z,4.00
2023-04-20T04:31:18.300Z,3.60
2023-04-20T04:33:48.382Z,3.00
2023-04-20T04:36:27.134Z,3.00
2023-04-20T04:38:55.882Z,3.90
2023-04-20T04:41:23.674Z,4.40
2023-04-20T04:43:51.065Z,4.10
2023-04-20T04:46:25.488Z,3.60
2023-04-20T04:48:52.173Z,3.60
2023-04-20T04:51:19.214Z,5.00
2023-04-20T04:53:47.455Z,4.60
2023-04-20T04:56:14.101Z,4.53
2023-04-20T04:58:40.721Z,4.40
2023-04-20T05:01:07.405Z,4.87
2023-04-20T05:03:34.000Z,4.70
2023-04-20T05:06:00.918Z,4.57
2023-04-20T05:08:27.355Z,5.00
2023-04-20T05:10:53.893Z,4.87
2023-04-20T05:13:20.721Z,4.93
2023-04-20T05:15:47.766Z,5.40
2023-04-20T05:18:14.279Z,6.90
2023-04-20T05:20:40.969Z,6.53
2023-04-20T05:23:07.451Z,7.27
2023-04-20T05:25:34.173Z,6.47
2023-04-20T05:28:01.102Z,7.67
2023-04-20T05:30:27.682Z,6.67
2023-04-20T05:32:54.245Z,6.10
2023-04-20T05:35:21.411Z,7.03
2023-04-20T05:37:48.378Z,5.53
2023-04-20T05:40:15.810Z,6.20
2023-04-20T05:42:42.389Z,5.53
2023-04-20T05:45:09.185Z,5.20
2023-04-20T05:47:35.814Z,5.13
2023-04-20T05:50:02.637Z,5.03
2023-04-20T05:52:30.537Z,5.50
2023-04-20T05:54:57.255Z,4.90
2023-04-20T05:57:24.534Z,4.33
2023-04-20T05:59:51.454Z,6.17
2023-04-20T06:02:18.207Z,5.33
2023-04-20T06:04:45.144Z,5.50
2023-04-20T06:07:11.966Z,4.33
2023-04-20T06:09:38.589Z,4.97
2023-04-20T06:12:05.462Z,6.40
2023-04-20T06:14:31.973Z,5.63
2023-04-20T06:16:58.692Z,4.40
2023-04-20T06:19:25.213Z,4.93
2023-04-20T06:21:51.880Z,4.60
2023-04-20T06:24:18.352Z,5.17
2023-04-20T06:26:45.195Z,5.47
2023-04-20T06:29:12.152Z,5.37
2023-04-20T06:31:38.999Z,4.80
2023-04-20T06:34:05.562Z,6.63
2023-04-20T06:36:32.835Z,5.60
2023-04-20T06:38:59.315Z,5.50
2023-04-20T06:41:25.889Z,5.70
2023-04-20T06:43:52.444Z,5.40
2023-04-20T06:46:19.258Z,6.60
2023-04-20T06:48:46.056Z,6.43
2023-04-20T06:51:13.021Z,5.13
2023-04-20T06:53:39.776Z,5.93
2023-04-20T06:56:06.883Z,4.20
2023-04-20T06:58:33.414Z,6.97
2023-04-20T07:01:00.070Z,5.43
2023-04-20T07:03:26.899Z,6.00
2023-04-20T07:05:53.502Z,5.50
2023-04-20T07:08:20.330Z,6.50
2023-04-20T07:10:46.855Z,6.20
2023-04-20T07:13:13.350Z,6.00
2023-04-20T07:15:40.007Z,6.70
2023-04-20T07:18:06.597Z,6.87
2023-04-20T07:20:33.430Z,5.60
2023-04-20T07:22:59.993Z,5.60
2023-04-20T07:25:27.291Z,6.47
2023-04-20T07:27:54.003Z,6.73
2023-04-20T07:30:20.763Z,8.33
2023-04-20T07:32:47.385Z,8.90
2023-04-20T07:35:13.894Z,7.87
2023-04-20T07:37:40.732Z,9.53
2023-04-20T07:40:07.900Z,9.13
2023-04-20T07:42:34.994Z,10.20
2023-04-20T07:45:01.581Z,10.70
2023-04-20T07:47:29.216Z,11.87
2023-04-20T07:49:57.484Z,11.20
2023-04-20T07:52:24.730Z,8.90
2023-04-20T07:54:53.851Z,10.33
2023-04-20T07:57:21.086Z,8.93
2023-04-20T07:59:47.723Z,9.90
2023-04-20T08:04:41.350Z,7.87
2023-04-20T08:07:08.146Z,10.00
2023-04-20T08:09:34.894Z,7.60
2023-04-20T08:12:01.723Z,7.63
2023-04-20T08:14:28.281Z,8.73
2023-04-20T08:16:54.831Z,5.60
2023-04-20T08:19:21.523Z,5.43
2023-04-20T08:21:48.060Z,4.37
2023-04-20T08:24:14.666Z,5.07
2023-04-20T08:26:43.487Z,5.43
2023-04-20T08:29:10.545Z,5.10
2023-04-20T08:31:37.156Z,4.87
2023-04-20T08:34:03.994Z,5.50
2023-04-20T08:36:30.459Z,6.60
2023-04-20T08:38:58.487Z,6.10
2023-04-20T08:41:25.949Z,5.60
2023-04-20T08:43:52.440Z,6.40
2023-04-20T08:46:19.347Z,6.77
2023-04-20T08:48:46.809Z,5.70
2023-04-20T08:51:14.817Z,6.33
2023-04-20T08:53:41.596Z,5.93
2023-04-20T08:56:08.273Z,5.27
2023-04-20T08:58:34.805Z,5.30
2023-04-20T09:01:01.579Z,6.00
2023-04-20T09:03:32.772Z,6.47
2023-04-20T09:05:59.394Z,6.40
2023-04-20T09:08:39.399Z,6.03
2023-04-20T09:11:06.618Z,6.63
2023-04-20T09:13:33.724Z,7.37
2023-04-20T09:16:10.039Z,6.10
2023-04-20T09:18:36.804Z,7.20
2023-04-20T09:21:09.837Z,6.73
2023-04-20T09:23:36.677Z,6.67
2023-04-20T09:26:04.411Z,6.80
2023-04-20T09:28:39.448Z,6.07
2023-04-20T09:31:06.247Z,6.27
2023-04-20T09:33:34.162Z,6.03
2023-04-20T09:36:05.554Z,7.77
2023-04-20T09:38:32.078Z,9.00
2023-04-20T09:41:01.685Z,5.63
2023-04-20T09:43:29.045Z,7.07
2023-04-20T09:45:56.355Z,6.70
2023-04-20T09:48:22.933Z,7.53
2023-04-20T09:50:51.134Z,6.00
2023-04-20T09:53:18.860Z,6.37
2023-04-20T09:55:46.905Z,6.60
2023-04-20T09:58:13.388Z,7.27
2023-04-20T10:00:40.015Z,7.27
2023-04-20T10:03:09.070Z,7.77
2023-04-20T10:05:39.473Z,6.33
2023-04-20T10:08:06.603Z,7.33
2023-04-20T10:10:43.067Z,6.33
2023-04-20T10:13:09.933Z,7.77
2023-04-20T10:15:37.394Z,6.73
2023-04-20T10:18:15.324Z,6.70
2023-04-20T10:20:41.907Z,6.57
2023-04-20T10:23:10.457Z,6.00
2023-04-20T10:25:37.410Z,5.73
2023-04-20T10:28:06.155Z,6.00
2023-04-20T10:30:33.677Z,6.50
2023-04-20T10:33:11.430Z,4.67
2023-04-20T10:35:57.964Z,5.60
2023-04-20T10:38:35.588Z,5.80
2023-04-20T10:41:06.088Z,5.47
2023-04-20T10:43:32.893Z,4.37
2023-04-20T10:45:59.376Z,4.93
2023-04-20T10:48:25.890Z,5.30
2023-04-20T10:50:52.333Z,5.63
2023-04-20T10:53:20.602Z,5.67
2023-04-20T10:55:47.537Z,6.03
2023-04-20T10:58:23.599Z,5.03
2023-04-20T11:01:00.150Z,6.40
2023-04-20T11:03:30.638Z,3.20
2023-04-20T11:06:01.150Z,1.57
2023-04-20T11:08:41.746Z,1.50
2023-04-20T11:11:38.079Z,1.40
2023-04-20T11:14:06.465Z,1.47
2023-04-20T11:16:47.040Z,2.60
2023-04-20T11:19:22.429Z,3.40
2023-04-20T11:21:49.071Z,3.10
2023-04-20T11:24:22.241Z,1.90
2023-04-20T11:26:54.252Z,1.70
2023-04-20T11:29:26.930Z,1.40
2023-04-20T11:31:53.557Z,1.10
2023-04-20T11:34:20.249Z,1.80
2023-04-20T11:36:46.889Z,1.50
2023-04-20T11:39:14.057Z,1.00
2023-04-20T11:41:42.382Z,1.40
2023-04-20T11:44:09.174Z,2.07
2023-04-20T11:46:39.268Z,1.30
2023-04-20T11:49:06.074Z,1.13
2023-04-20T11:51:32.630Z,0.83
2023-04-20T11:53:59.163Z,0.80
2023-04-20T11:56:26.008Z,1.23
2023-04-20T11:58:52.849Z,0.80
2023-04-20T12:01:19.470Z,1.03
2023-04-20T12:03:47.937Z,0.90
2023-04-20T12:06:15.010Z,0.97
2023-04-20T12:08:43.063Z,0.70
2023-04-20T12:11:09.720Z,1.00
2023-04-20T12:13:36.258Z,1.00
2023-04-20T12:16:02.912Z,1.00
2023-04-20T12:18:29.447Z,0.90
2023-04-20T12:20:56.011Z,0.97
2023-04-20T12:23:22.526Z,1.03
2023-04-20T12:25:49.489Z,1.00
2023-04-20T12:28:16.079Z,1.60
2023-04-20T12:30:42.722Z,0.73
2023-04-20T12:33:09.302Z,0.67
2023-04-20T12:35:36.002Z,0.80
2023-04-20T12:38:02.569Z,1.43
2023-04-20T12:40:29.076Z,1.70
2023-04-20T12:42:55.576Z,1.27
2023-04-20T12:45:22.436Z,1.17
2023-04-20T12:47:48.928Z,1.23
2023-04-20T12:50:15.599Z,1.27
2023-04-20T12:52:42.147Z,1.23
2023-04-20T12:55:08.971Z,1.77
2023-04-20T12:57:36.361Z,1.67
2023-04-20T13:00:04.863Z,2.17
2023-04-20T13:02:33.041Z,1.80
2023-04-20T13:04:59.970Z,2.20
2023-04-20T13:07:27.880Z,1.40
2023-04-20T13:09:54.317Z,2.13
2023-04-20T13:12:21.269Z,2.40
2023-04-20T13:14:47.989Z,2.93
2023-04-20T13:17:14.652Z,3.67
2023-04-20T13:19:41.331Z,2.97
2023-04-20T13:22:07.902Z,2.70
2023-04-20T13:24:34.465Z,3.47
2023-04-20T13:27:01.146Z,2.60
2023-04-20T13:29:28.080Z,2.50
2023-04-20T13:31:54.645Z,2.63
2023-04-20T13:34:21.597Z,3.60
2023-04-20T13:36:48.531Z,3.30
2023-04-20T13:39:15.604Z,1.63
2023-04-20T13:41:42.382Z,2.03
2023-04-20T13:44:15.775Z,4.47
2023-04-20T13:46:46.991Z,2.37
2023-04-20T13:49:13.756Z,3.93
2023-04-20T13:51:40.670Z,2.20
2023-04-20T13:54:07.478Z,3.90
2023-04-20T13:56:34.836Z,4.60
2023-04-20T13:59:03.959Z,2.47
2023-04-20T14:01:31.507Z,3.77
2023-04-20T14:03:58.356Z,2.10
2023-04-20T14:06:25.715Z,4.47
2023-04-20T14:08:52.338Z,2.80
2023-04-20T14:11:18.918Z,4.23
2023-04-20T14:13:45.572Z,3.63
2023-04-20T14:16:13.809Z,2.00
2023-04-20T14:18:40.854Z,3.43
2023-04-20T14:21:07.509Z,3.60
2023-04-20T14:23:34.253Z,4.30
2023-04-20T14:26:01.059Z,4.23
2023-04-20T14:28:29.843Z,4.00
2023-04-20T14:30:58.151Z,4.23
2023-04-20T14:33:24.800Z,1.77
2023-04-20T14:35:51.427Z,3.23
2023-04-20T14:38:18.130Z,3.20
2023-04-20T14:40:44.653Z,4.00
2023-04-20T14:43:11.402Z,2.43
2023-04-20T14:45:39.284Z,3.73
2023-04-20T14:48:06.104Z,3.27
2023-04-20T14:50:32.855Z,4.83
2023-04-20T14:52:59.428Z,4.57
2023-04-20T14:55:26.247Z,4.60
2023-04-20T14:57:54.238Z,4.20
2023-04-20T15:00:23.514Z,4.80
2023-04-20T15:02:51.081Z,5.30
2023-04-20T15:05:18.074Z,4.80
2023-04-20T15:07:45.885Z,4.53
2023-04-20T15:10:12.549Z,4.33
2023-04-20T15:12:39.057Z,5.10
2023-04-20T15:15:05.873Z,4.23
2023-04-20T15:17:32.499Z,3.73
2023-04-20T15:19:59.136Z,4.23
2023-04-20T15:22:25.887Z,4.50
2023-04-20T15:24:52.530Z,3.70
2023-04-20T15:27:19.129Z,3.93
2023-04-20T15:29:46.559Z,4.23
2023-04-20T15:32:13.328Z,4.57
2023-04-20T15:34:40.419Z,4.00
2023-04-20T15:37:06.995Z,4.10
2023-04-20T15:39:34.861Z,4.13
2023-04-20T15:42:03.092Z,4.80
2023-04-20T15:44:29.709Z,4.30
2023-04-20T15:46:58.045Z,3.70
2023-04-20T15:49:24.867Z,3.83
2023-04-20T15:51:51.477Z,3.50
2023-04-20T15:54:23.360Z,3.00
2023-04-20T15:56:51.026Z,3.50
2023-04-20T15:59:18.157Z,5.67
2023-04-20T16:01:45.162Z,3.80
2023-04-20T16:04:12.201Z,4.50
2023-04-20T16:06:40.076Z,5.03
2023-04-20T16:09:07.280Z,4.23
2023-04-20T16:11:34.836Z,5.30
2023-04-20T16:14:01.878Z,4.40
2023-04-20T16:16:28.576Z,5.77
2023-04-20T16:18:55.451Z,5.30
2023-04-20T16:21:23.375Z,5.80
2023-04-20T16:23:53.451Z,5.60
2023-04-20T16:26:20.915Z,4.37
2023-04-20T16:28:47.692Z,4.43
2023-04-20T16:31:14.706Z,5.03
2023-04-20T16:33:41.660Z,5.13
2023-04-20T16:36:08.489Z,4.83
2023-04-20T16:38:35.136Z,6.07
2023-04-20T16:41:02.819Z,5.17
2023-04-20T16:43:29.539Z,5.40
2023-04-20T16:45:56.087Z,4.67
2023-04-20T16:48:22.638Z,4.60
2023-04-20T16:50:49.365Z,4.50
2023-04-20T16:53:15.920Z,4.60
2023-04-20T16:55:42.514Z,4.93
2023-04-20T16:58:09.061Z,5.30
2023-04-20T17:00:36.717Z,4.57
2023-04-20T17:03:06.913Z,4.90
2023-04-20T17:05:33.621Z,4.70
2023-04-20T17:08:00.181Z,5.07
2023-04-20T17:10:26.793Z,4.10
2023-04-20T17:12:53.484Z,5.40
2023-04-20T17:15:20.046Z,4.17
2023-04-20T17:17:46.680Z,4.30
2023-04-20T17:20:13.694Z,3.93
2023-04-20T17:22:40.291Z,5.17
2023-04-20T17:25:07.952Z,4.13
2023-04-20T17:27:34.640Z,4.37
2023-04-20T17:30:02.029Z,4.77
2023-04-20T17:32:28.696Z,5.00
2023-04-20T17:34:55.426Z,5.90
2023-04-20T17:37:22.927Z,5.10
2023-04-20T17:39:49.756Z,6.27
2023-04-20T17:42:17.181Z,6.20
2023-04-20T17:44:43.664Z,7.10
2023-04-20T17:47:10.421Z,6.23
2023-04-20T17:49:37.199Z,6.63
2023-04-20T17:52:03.832Z,5.80
2023-04-20T17:54:30.417Z,5.83
2023-04-20T17:56:58.088Z,6.70
2023-04-20T17:59:24.708Z,4.70
2023-04-20T18:01:51.531Z,5.03
2023-04-20T18:04:18.670Z,5.50
2023-04-20T18:06:45.660Z,6.60
2023-04-20T18:09:14.377Z,6.43
2023-04-20T18:11:42.371Z,4.90
2023-04-20T18:14:09.042Z,4.33
2023-04-20T18:16:35.835Z,3.70
2023-04-20T18:19:02.444Z,3.50
2023-04-20T18:21:29.592Z,3.80
2023-04-20T18:23:56.409Z,4.30
2023-04-20T18:26:23.852Z,4.20
2023-04-20T18:28:50.703Z,3.63
2023-04-20T18:31:17.289Z,3.80
2023-04-20T18:33:44.083Z,4.47
2023-04-20T18:36:10.677Z,5.03
2023-04-20T18:38:37.261Z,4.27
2023-04-20T18:41:03.822Z,4.60
2023-04-20T18:43:31.321Z,5.43
2023-04-20T18:45:57.888Z,5.00
2023-04-20T18:48:24.470Z,5.17
2023-04-20T18:50:51.046Z,5.87
2023-04-20T18:53:17.621Z,5.03
2023-04-20T18:55:44.219Z,5.80
2023-04-20T18:58:10.755Z,5.73
2023-04-20T19:00:37.377Z,6.47
2023-04-20T19:03:06.075Z,6.60
2023-04-20T19:05:33.033Z,6.63
2023-04-20T19:07:59.673Z,7.53
2023-04-20T19:10:26.625Z,6.80
2023-04-20T19:12:53.277Z,7.10
2023-04-20T19:15:25.831Z,6.20
2023-04-20T19:17:53.119Z,6.03
2023-04-20T19:20:20.039Z,5.73
2023-04-20T19:22:46.649Z,7.13
2023-04-20T19:25:13.317Z,5.83
2023-04-20T19:27:40.129Z,6.90
2023-04-20T19:30:07.626Z,6.77
2023-04-20T19:32:34.415Z,7.53
2023-04-20T19:35:01.657Z,7.30
2023-04-20T19:37:28.449Z,7.70
2023-04-20T19:39:55.024Z,6.23
2023-04-20T19:42:22.759Z,6.73
2023-04-20T19:44:49.403Z,7.37
2023-04-20T19:47:16.054Z,8.20
2023-04-20T19:49:42.726Z,9.40
2023-04-20T19:52:09.309Z,8.03
2023-04-20T19:54:35.880Z,7.57
2023-04-20T19:57:02.425Z,9.50
2023-04-20T19:59:30.367Z,8.70
2023-04-20T20:01:57.205Z,8.60
2023-04-20T20:04:24.048Z,9.10
2023-04-20T20:06:50.937Z,8.73
2023-04-20T20:09:19.186Z,8.93
2023-04-20T20:11:50.383Z,8.30
2023-04-20T20:14:17.560Z,7.30
2023-04-20T20:16:44.231Z,8.50
2023-04-20T20:19:11.756Z,8.50
2023-04-20T20:21:38.280Z,9.80
2023-04-20T20:24:04.839Z,9.70
2023-04-20T20:26:31.645Z,9.70
2023-04-20T20:28:58.075Z,10.13
2023-04-20T20:31:24.813Z,11.27
2023-04-20T20:33:52.093Z,9.90
2023-04-20T20:36:18.772Z,10.20
2023-04-20T20:38:45.329Z,12.57
2023-04-20T20:41:13.829Z,11.93
2023-04-20T20:43:43.398Z,9.53
2023-04-20T20:46:10.043Z,11.43
2023-04-20T20:48:36.624Z,10.60
2023-04-20T20:51:03.342Z,10.70
2023-04-20T20:53:29.942Z,11.37
2023-04-20T20:55:56.427Z,10.90
2023-04-20T20:58:23.147Z,11.53
2023-04-20T21:00:49.870Z,12.80
2023-04-20T21:03:16.430Z,12.50
2023-04-20T21:05:43.126Z,13.50
2023-04-20T21:08:10.293Z,11.50
2023-04-20T21:10:37.126Z,12.60
2023-04-20T21:13:04.154Z,12.40
2023-04-20T21:15:31.037Z,13.17
2023-04-20T21:17:57.530Z,13.27
2023-04-20T21:20:24.038Z,15.17
2023-04-20T21:22:50.825Z,14.30
2023-04-20T21:25:17.284Z,15.30
2023-04-20T21:27:43.796Z,15.67
2023-04-20T21:30:11.118Z,16.27
2023-04-20T21:32:37.627Z,16.03
2023-04-20T21:35:04.723Z,16.60
2023-04-20T21:37:31.379Z,17.20
2023-04-20T21:39:57.872Z,16.23
2023-04-20T21:42:24.457Z,19.50
2023-04-20T21:44:51.339Z,16.40
2023-04-20T21:47:17.876Z,18.67
2023-04-20T21:49:44.376Z,17.87
2023-04-20T21:52:10.924Z,19.03
2023-04-20T21:54:37.888Z,18.03
2023-04-20T21:57:04.426Z,16.80
2023-04-20T21:59:30.986Z,15.50
2023-04-20T22:01:57.572Z,16.80
2023-04-20T22:04:25.840Z,16.20
2023-04-20T22:06:53.463Z,18.70
2023-04-20T22:09:20.137Z,17.07
2023-04-20T22:11:47.769Z,18.60
2023-04-20T22:14:14.314Z,16.27
2023-04-20T22:16:41.064Z,18.33
2023-04-20T22:19:07.888Z,18.43
2023-04-20T22:21:34.620Z,18.17
2023-04-20T22:24:01.119Z,16.53
2023-04-20T22:26:27.669Z,18.90
2023-04-20T22:28:54.319Z,17.97
2023-04-20T22:31:20.863Z,19.33
2023-04-20T22:33:47.409Z,20.30
2023-04-20T22:36:13.916Z,21.00
2023-04-20T22:38:40.594Z,22.10
2023-04-20T22:41:07.178Z,19.10
2023-04-20T22:43:33.733Z,18.60
2023-04-20T22:46:00.258Z,19.90
2023-04-20T22:48:26.888Z,22.00
2023-04-20T22:50:53.513Z,18.77
2023-04-20T22:53:20.182Z,18.70
2023-04-20T22:55:46.635Z,19.03
2023-04-20T22:58:13.121Z,22.20
2023-04-20T23:00:39.852Z,20.10
2023-04-20T23:03:06.554Z,18.50
2023-04-20T23:05:33.704Z,17.77
2023-04-20T23:08:00.513Z,20.67
2023-04-20T23:10:28.594Z,23.00
2023-04-20T23:12:55.580Z,21.83
2023-04-20T23:15:22.266Z,20.70
2023-04-20T23:17:48.822Z,22.73
2023-04-20T23:20:15.322Z,21.03
2023-04-20T23:22:41.881Z,22.40
2023-04-20T23:25:09.723Z,23.20
2023-04-20T23:27:36.532Z,22.30
2023-04-20T23:30:03.240Z,24.70
2023-04-20T23:32:29.776Z,24.53
2023-04-20T23:34:56.376Z,24.07
2023-04-20T23:37:22.910Z,24.50
2023-04-20T23:39:49.391Z,28.43
2023-04-20T23:42:15.912Z,25.20
2023-04-20T23:44:42.481Z,25.27
2023-04-20T23:47:08.962Z,27.20
2023-04-20T23:49:35.518Z,27.80
2023-04-20T23:52:02.110Z,26.43
2023-04-20T23:54:29.265Z,26.93
2023-04-20T23:56:56.983Z,28.00
2023-04-20T23:59:23.518Z,30.07
